WZZ7LX EPKT-LICC
Flight info
| Callsign | WZZ7LX |
|---|---|
| Flight time | 2h 6m |
| Altitude | 36000 |
| Route | TUSIN DCT UPLAV DCT MIKOV DCT INSAX DCT PETOV/N0446F350 DCT KATTI DCT RCA DCT PIMOR |
| Aircraft | A321/M-SDE3FGHIRWY/LB1 |
Departure
| Time | 2026-04-29 09:30 |
|---|---|
| Airport | Katowice Wojciech Korfanty International Airport (EPKT) |
Arrival
| Time | 2026-04-29 11:36 |
|---|---|
| Airport | Catania-Fontanarossa Airport (LICC) |
| Time | Latitude | Longitude | Altitude | Speed | Heading |
|---|---|---|---|---|---|
| 2026-04-29 08:58 | 50.47185 | 19.07622 | 1000 ft | 0 kts | 180° |
| 2026-04-29 08:59 | 50.47182 | 19.07622 | 999 ft | 0 kts | 180° |
| 2026-04-29 09:20 | 50.47183 | 19.07622 | 998 ft | 1 kts | 180° |
| 2026-04-29 09:20 | 50.47205 | 19.07622 | 998 ft | 4 kts | 180° |
| 2026-04-29 09:20 | 50.47228 | 19.07627 | 1000 ft | 4 kts | 226° |
| 2026-04-29 09:21 | 50.47234 | 19.07650 | 998 ft | 3 kts | 270° |
| 2026-04-29 09:21 | 50.47234 | 19.07691 | 998 ft | 3 kts | 270° |
| 2026-04-29 09:21 | 50.47234 | 19.07695 | 998 ft | 0 kts | 270° |
| 2026-04-29 09:24 | 50.47234 | 19.07680 | 998 ft | 3 kts | 270° |
| 2026-04-29 09:24 | 50.47234 | 19.07622 | 1003 ft | 7 kts | 270° |
| 2026-04-29 09:24 | 50.47234 | 19.07521 | 1003 ft | 11 kts | 270° |
| 2026-04-29 09:25 | 50.47235 | 19.07383 | 1002 ft | 14 kts | 270° |
| 2026-04-29 09:25 | 50.47235 | 19.07227 | 1003 ft | 15 kts | 270° |
| 2026-04-29 09:25 | 50.47235 | 19.07054 | 1003 ft | 17 kts | 270° |
| 2026-04-29 09:25 | 50.47236 | 19.06858 | 998 ft | 19 kts | 270° |
| 2026-04-29 09:26 | 50.47244 | 19.06666 | 998 ft | 16 kts | 294° |
| 2026-04-29 09:26 | 50.47340 | 19.06626 | 1000 ft | 13 kts | 360° |
| 2026-04-29 09:26 | 50.47422 | 19.06569 | 998 ft | 14 kts | 295° |
| 2026-04-29 09:26 | 50.47428 | 19.06396 | 996 ft | 17 kts | 270° |
| 2026-04-29 09:27 | 50.47428 | 19.06195 | 994 ft | 20 kts | 270° |
| 2026-04-29 09:27 | 50.47436 | 19.06027 | 994 ft | 13 kts | 291° |
| 2026-04-29 09:27 | 50.47497 | 19.05979 | 992 ft | 0 kts | 0° |
| 2026-04-29 09:28 | 50.47513 | 19.05979 | 998 ft | 4 kts | 0° |
| 2026-04-29 09:28 | 50.47543 | 19.05976 | 994 ft | 5 kts | 354° |
| 2026-04-29 09:29 | 50.47580 | 19.05970 | 998 ft | 6 kts | 356° |
| 2026-04-29 09:29 | 50.47604 | 19.06196 | 995 ft | 44 kts | 90° |
| 2026-04-29 09:29 | 50.47602 | 19.07077 | 1001 ft | 114 kts | 90° |
| 2026-04-29 09:30 | 50.47596 | 19.08642 | 1022 ft | 167 kts | 89° |
| 2026-04-29 09:30 | 50.47587 | 19.10452 | 1733 ft | 164 kts | 85° |
| 2026-04-29 09:30 | 50.47580 | 19.12231 | 2580 ft | 162 kts | 85° |
| 2026-04-29 09:30 | 50.47576 | 19.13990 | 3263 ft | 162 kts | 86° |
| 2026-04-29 09:31 | 50.47577 | 19.15850 | 3606 ft | 181 kts | 85° |
| 2026-04-29 09:31 | 50.47579 | 19.17952 | 3834 ft | 204 kts | 86° |
| 2026-04-29 09:31 | 50.47459 | 19.20316 | 4135 ft | 233 kts | 107° |
| 2026-04-29 09:31 | 50.46464 | 19.22347 | 4760 ft | 255 kts | 143° |
| 2026-04-29 09:32 | 50.44724 | 19.23258 | 5331 ft | 274 kts | 173° |
| 2026-04-29 09:32 | 50.42794 | 19.23247 | 6155 ft | 281 kts | 185° |
| 2026-04-29 09:32 | 50.40844 | 19.22936 | 7017 ft | 283 kts | 188° |
| 2026-04-29 09:32 | 50.38872 | 19.22597 | 7826 ft | 288 kts | 187° |
| 2026-04-29 09:33 | 50.36854 | 19.22332 | 8611 ft | 294 kts | 186° |
| 2026-04-29 09:33 | 50.34792 | 19.22160 | 9391 ft | 300 kts | 184° |
| 2026-04-29 09:33 | 50.32712 | 19.21797 | 10149 ft | 303 kts | 200° |
| 2026-04-29 09:33 | 50.30898 | 19.20275 | 10802 ft | 299 kts | 227° |
| 2026-04-29 09:34 | 50.29646 | 19.17705 | 11261 ft | 303 kts | 252° |
| 2026-04-29 09:34 | 50.29235 | 19.14450 | 11470 ft | 313 kts | 275° |
| 2026-04-29 09:34 | 50.29270 | 19.10931 | 11692 ft | 333 kts | 275° |
| 2026-04-29 09:34 | 50.29300 | 19.07267 | 12281 ft | 340 kts | 275° |
| 2026-04-29 09:35 | 50.29315 | 19.03554 | 13038 ft | 343 kts | 275° |
| 2026-04-29 09:35 | 50.29105 | 18.99806 | 13804 ft | 351 kts | 262° |
| 2026-04-29 09:35 | 50.28266 | 18.96167 | 14512 ft | 363 kts | 248° |
| 2026-04-29 09:35 | 50.26797 | 18.92898 | 15189 ft | 375 kts | 232° |
| 2026-04-29 09:36 | 50.24782 | 18.90304 | 15810 ft | 388 kts | 216° |
| 2026-04-29 09:36 | 50.22357 | 18.88367 | 16563 ft | 392 kts | 211° |
| 2026-04-29 09:36 | 50.19897 | 18.86497 | 17272 ft | 395 kts | 211° |
| 2026-04-29 09:36 | 50.17418 | 18.84610 | 17951 ft | 398 kts | 211° |
| 2026-04-29 09:37 | 50.14917 | 18.82700 | 18610 ft | 402 kts | 212° |
| 2026-04-29 09:37 | 50.12397 | 18.80776 | 19193 ft | 405 kts | 212° |
| 2026-04-29 09:37 | 50.09851 | 18.78837 | 19771 ft | 409 kts | 212° |
| 2026-04-29 09:37 | 50.07294 | 18.76856 | 20327 ft | 412 kts | 213° |
| 2026-04-29 09:38 | 50.04748 | 18.74755 | 20876 ft | 415 kts | 214° |
| 2026-04-29 09:38 | 50.02250 | 18.72603 | 21402 ft | 418 kts | 215° |
| 2026-04-29 09:38 | 49.99709 | 18.70372 | 21940 ft | 421 kts | 215° |
| 2026-04-29 09:38 | 49.97150 | 18.68108 | 22460 ft | 425 kts | 216° |
| 2026-04-29 09:39 | 49.94573 | 18.65815 | 22976 ft | 429 kts | 216° |
| 2026-04-29 09:39 | 49.91974 | 18.63504 | 23470 ft | 433 kts | 216° |
| 2026-04-29 09:39 | 49.89344 | 18.61193 | 23947 ft | 437 kts | 215° |
| 2026-04-29 09:39 | 49.86729 | 18.58788 | 24360 ft | 436 kts | 221° |
| 2026-04-29 09:40 | 49.84371 | 18.55881 | 24786 ft | 431 kts | 230° |
| 2026-04-29 09:40 | 49.82366 | 18.52484 | 25193 ft | 425 kts | 239° |
| 2026-04-29 09:40 | 49.80603 | 18.48886 | 25640 ft | 426 kts | 239° |
| 2026-04-29 09:40 | 49.78808 | 18.45230 | 26084 ft | 428 kts | 239° |
| 2026-04-29 09:41 | 49.76997 | 18.41559 | 26518 ft | 430 kts | 239° |
| 2026-04-29 09:41 | 49.75174 | 18.37880 | 26939 ft | 432 kts | 239° |
| 2026-04-29 09:41 | 49.73334 | 18.34183 | 27334 ft | 435 kts | 239° |
| 2026-04-29 09:41 | 49.71483 | 18.30469 | 27685 ft | 438 kts | 239° |
| 2026-04-29 09:42 | 49.69618 | 18.26723 | 28041 ft | 441 kts | 239° |
| 2026-04-29 09:42 | 49.67744 | 18.22965 | 28430 ft | 443 kts | 239° |
| 2026-04-29 09:42 | 49.65882 | 18.19238 | 28829 ft | 446 kts | 239° |
| 2026-04-29 09:42 | 49.63982 | 18.15442 | 29221 ft | 448 kts | 239° |
| 2026-04-29 09:43 | 49.62071 | 18.11627 | 29618 ft | 450 kts | 239° |
| 2026-04-29 09:43 | 49.60160 | 18.07820 | 30167 ft | 448 kts | 239° |
| 2026-04-29 09:43 | 49.58253 | 18.04026 | 30658 ft | 447 kts | 239° |
| 2026-04-29 09:43 | 49.56352 | 18.00249 | 31081 ft | 446 kts | 239° |
| 2026-04-29 09:44 | 49.54449 | 17.96471 | 31486 ft | 446 kts | 239° |
| 2026-04-29 09:44 | 49.52548 | 17.92704 | 31875 ft | 446 kts | 239° |
| 2026-04-29 09:44 | 49.50645 | 17.88935 | 32258 ft | 446 kts | 239° |
| 2026-04-29 09:44 | 49.48768 | 17.85221 | 32631 ft | 446 kts | 239° |
| 2026-04-29 09:45 | 49.46866 | 17.81464 | 33013 ft | 444 kts | 239° |
| 2026-04-29 09:45 | 49.44969 | 17.77731 | 33464 ft | 442 kts | 239° |
| 2026-04-29 09:45 | 49.43078 | 17.74010 | 33869 ft | 441 kts | 239° |
| 2026-04-29 09:45 | 49.41192 | 17.70300 | 34253 ft | 441 kts | 239° |
| 2026-04-29 09:46 | 49.39307 | 17.66593 | 34573 ft | 440 kts | 239° |
| 2026-04-29 09:46 | 49.37422 | 17.62888 | 34869 ft | 440 kts | 238° |
| 2026-04-29 09:46 | 49.35534 | 17.59188 | 35147 ft | 441 kts | 238° |
| 2026-04-29 09:46 | 49.33640 | 17.55484 | 35409 ft | 441 kts | 238° |
| 2026-04-29 09:47 | 49.31734 | 17.51796 | 35673 ft | 442 kts | 237° |
| 2026-04-29 09:47 | 49.29772 | 17.48231 | 35922 ft | 443 kts | 235° |
| 2026-04-29 09:47 | 49.27722 | 17.44708 | 36215 ft | 444 kts | 234° |
| 2026-04-29 09:47 | 49.25634 | 17.41226 | 36282 ft | 444 kts | 233° |
| 2026-04-29 09:48 | 49.21442 | 17.34274 | 36297 ft | 444 kts | 233° |
| 2026-04-29 09:48 | 49.17293 | 17.27287 | 36296 ft | 444 kts | 234° |
| 2026-04-29 09:49 | 49.13175 | 17.20279 | 36298 ft | 443 kts | 234° |
| 2026-04-29 09:49 | 49.09084 | 17.13324 | 36293 ft | 443 kts | 234° |
| 2026-04-29 09:50 | 49.04950 | 17.06336 | 36292 ft | 444 kts | 234° |
| 2026-04-29 09:50 | 49.00799 | 16.99369 | 36294 ft | 444 kts | 234° |
| 2026-04-29 09:51 | 48.96643 | 16.92401 | 36292 ft | 444 kts | 234° |
| 2026-04-29 09:51 | 48.92513 | 16.85491 | 36265 ft | 444 kts | 233° |
| 2026-04-29 09:52 | 48.88352 | 16.78542 | 36282 ft | 444 kts | 233° |
| 2026-04-29 09:52 | 48.84187 | 16.71598 | 36288 ft | 444 kts | 233° |
| 2026-04-29 09:53 | 48.79757 | 16.65016 | 36281 ft | 452 kts | 221° |
| 2026-04-29 09:53 | 48.74086 | 16.60787 | 36261 ft | 467 kts | 200° |
| 2026-04-29 09:54 | 48.67694 | 16.58698 | 36277 ft | 470 kts | 197° |
| 2026-04-29 09:54 | 48.61284 | 16.56693 | 36289 ft | 471 kts | 197° |
| 2026-04-29 09:55 | 48.54867 | 16.54678 | 36296 ft | 471 kts | 197° |
| 2026-04-29 09:55 | 48.48501 | 16.52686 | 36292 ft | 470 kts | 197° |
| 2026-04-29 09:56 | 48.42097 | 16.50692 | 36300 ft | 470 kts | 197° |
| 2026-04-29 09:56 | 48.35699 | 16.48702 | 36315 ft | 469 kts | 197° |
| 2026-04-29 09:57 | 48.29312 | 16.46716 | 36303 ft | 469 kts | 197° |
| 2026-04-29 09:57 | 48.22970 | 16.44740 | 36316 ft | 468 kts | 197° |
| 2026-04-29 09:58 | 48.16586 | 16.42768 | 36321 ft | 468 kts | 197° |
| 2026-04-29 09:58 | 48.10214 | 16.40804 | 36313 ft | 468 kts | 198° |
| 2026-04-29 09:59 | 48.03847 | 16.38853 | 36301 ft | 467 kts | 198° |
| 2026-04-29 09:59 | 47.97476 | 16.36908 | 36303 ft | 467 kts | 198° |
| 2026-04-29 10:00 | 47.91159 | 16.34976 | 36302 ft | 466 kts | 198° |
| 2026-04-29 10:00 | 47.84804 | 16.33036 | 36285 ft | 466 kts | 198° |
| 2026-04-29 10:01 | 47.78450 | 16.31102 | 36294 ft | 466 kts | 198° |
| 2026-04-29 10:01 | 47.72099 | 16.29179 | 36292 ft | 466 kts | 198° |
| 2026-04-29 10:02 | 47.65794 | 16.27272 | 36287 ft | 466 kts | 198° |
| 2026-04-29 10:02 | 47.59447 | 16.25357 | 36283 ft | 465 kts | 198° |
| 2026-04-29 10:03 | 47.53099 | 16.23443 | 36283 ft | 465 kts | 198° |
| 2026-04-29 10:03 | 47.46755 | 16.21526 | 36259 ft | 465 kts | 198° |
| 2026-04-29 10:04 | 47.40450 | 16.19626 | 36269 ft | 465 kts | 198° |
| 2026-04-29 10:04 | 47.34100 | 16.17737 | 36272 ft | 466 kts | 198° |
| 2026-04-29 10:05 | 47.27749 | 16.15851 | 36241 ft | 465 kts | 198° |
| 2026-04-29 10:05 | 47.21406 | 16.13969 | 36260 ft | 465 kts | 199° |
| 2026-04-29 10:06 | 47.15113 | 16.12094 | 36264 ft | 464 kts | 199° |
| 2026-04-29 10:06 | 47.08781 | 16.10213 | 36268 ft | 464 kts | 199° |
| 2026-04-29 10:07 | 47.02452 | 16.08353 | 36261 ft | 464 kts | 198° |
| 2026-04-29 10:07 | 46.95982 | 16.07242 | 36269 ft | 470 kts | 193° |
| 2026-04-29 10:08 | 46.89480 | 16.06274 | 36274 ft | 469 kts | 193° |
| 2026-04-29 10:08 | 46.83020 | 16.05310 | 36264 ft | 469 kts | 193° |
| 2026-04-29 10:09 | 46.76522 | 16.04334 | 36277 ft | 469 kts | 193° |
| 2026-04-29 10:09 | 46.70031 | 16.03370 | 36280 ft | 469 kts | 193° |
| 2026-04-29 10:10 | 46.63538 | 16.02413 | 36255 ft | 468 kts | 193° |
| 2026-04-29 10:10 | 46.57102 | 16.01461 | 36271 ft | 467 kts | 193° |
| 2026-04-29 10:11 | 46.50639 | 16.00505 | 36286 ft | 467 kts | 193° |
| 2026-04-29 10:11 | 46.44180 | 15.99552 | 36260 ft | 466 kts | 193° |
| 2026-04-29 10:12 | 46.37728 | 15.98608 | 36282 ft | 465 kts | 193° |
| 2026-04-29 10:12 | 46.31325 | 15.97699 | 36283 ft | 467 kts | 190° |
| 2026-04-29 10:13 | 46.24783 | 15.97740 | 36257 ft | 471 kts | 186° |
| 2026-04-29 10:13 | 46.18243 | 15.97873 | 36274 ft | 469 kts | 186° |
| 2026-04-29 10:14 | 46.11715 | 15.98009 | 36277 ft | 469 kts | 186° |
| 2026-04-29 10:14 | 46.05195 | 15.98141 | 36246 ft | 468 kts | 186° |
| 2026-04-29 10:15 | 45.98726 | 15.98273 | 36260 ft | 468 kts | 186° |
| 2026-04-29 10:15 | 45.92222 | 15.98406 | 36280 ft | 468 kts | 186° |
| 2026-04-29 10:16 | 45.86816 | 15.98512 | 36270 ft | 467 kts | 186° |
| 2026-04-29 10:16 | 45.79214 | 15.98668 | 36246 ft | 467 kts | 186° |
| 2026-04-29 10:17 | 45.72754 | 15.98797 | 36253 ft | 468 kts | 186° |
| 2026-04-29 10:17 | 45.66245 | 15.98918 | 36255 ft | 468 kts | 186° |
| 2026-04-29 10:18 | 45.59742 | 15.99044 | 36252 ft | 468 kts | 186° |
| 2026-04-29 10:18 | 45.53235 | 15.99168 | 36253 ft | 468 kts | 186° |
| 2026-04-29 10:19 | 45.46772 | 15.99301 | 36254 ft | 468 kts | 186° |
| 2026-04-29 10:19 | 45.40263 | 15.99435 | 36228 ft | 467 kts | 186° |
| 2026-04-29 10:20 | 45.33760 | 15.99563 | 36240 ft | 467 kts | 186° |
| 2026-04-29 10:20 | 45.27257 | 15.99691 | 36241 ft | 467 kts | 186° |
| 2026-04-29 10:21 | 45.20759 | 15.99817 | 36235 ft | 467 kts | 186° |
| 2026-04-29 10:21 | 45.14299 | 15.99947 | 36236 ft | 467 kts | 186° |
| 2026-04-29 10:22 | 45.07804 | 16.00076 | 36233 ft | 467 kts | 186° |
| 2026-04-29 10:22 | 45.01297 | 16.00199 | 36210 ft | 467 kts | 186° |
| 2026-04-29 10:23 | 44.94806 | 16.00325 | 36212 ft | 467 kts | 185° |
| 2026-04-29 10:23 | 44.88310 | 16.00457 | 36221 ft | 467 kts | 185° |
| 2026-04-29 10:24 | 44.81863 | 16.00590 | 36191 ft | 466 kts | 185° |
| 2026-04-29 10:24 | 44.75377 | 16.00712 | 36199 ft | 466 kts | 185° |
| 2026-04-29 10:25 | 44.68899 | 16.00837 | 36188 ft | 465 kts | 185° |
| 2026-04-29 10:25 | 44.62431 | 16.00967 | 36166 ft | 465 kts | 185° |
| 2026-04-29 10:26 | 44.56010 | 16.01085 | 36168 ft | 464 kts | 185° |
| 2026-04-29 10:26 | 44.49549 | 16.01205 | 36169 ft | 465 kts | 185° |
| 2026-04-29 10:27 | 44.39852 | 16.01393 | 36132 ft | 464 kts | 185° |
| 2026-04-29 10:28 | 44.33399 | 16.01518 | 36138 ft | 463 kts | 185° |
| 2026-04-29 10:28 | 44.27005 | 16.01630 | 36123 ft | 463 kts | 185° |
| 2026-04-29 10:29 | 44.20570 | 16.01753 | 36102 ft | 462 kts | 185° |
| 2026-04-29 10:29 | 44.14145 | 16.01884 | 36104 ft | 461 kts | 185° |
| 2026-04-29 10:30 | 44.07725 | 16.02008 | 36097 ft | 461 kts | 185° |
| 2026-04-29 10:30 | 44.01359 | 16.02121 | 36082 ft | 460 kts | 185° |
| 2026-04-29 10:31 | 43.94958 | 16.02241 | 36092 ft | 460 kts | 185° |
| 2026-04-29 10:31 | 43.88554 | 16.02362 | 36082 ft | 460 kts | 185° |
| 2026-04-29 10:32 | 43.82152 | 16.02475 | 36081 ft | 460 kts | 185° |
| 2026-04-29 10:32 | 43.75798 | 16.02591 | 36086 ft | 460 kts | 185° |
| 2026-04-29 10:33 | 43.69396 | 16.02719 | 36088 ft | 460 kts | 185° |
| 2026-04-29 10:33 | 43.62995 | 16.02845 | 36092 ft | 460 kts | 185° |
| 2026-04-29 10:34 | 43.56595 | 16.02962 | 36098 ft | 460 kts | 185° |
| 2026-04-29 10:34 | 43.50243 | 16.03074 | 36099 ft | 460 kts | 185° |
| 2026-04-29 10:35 | 43.43846 | 16.03187 | 36087 ft | 459 kts | 185° |
| 2026-04-29 10:35 | 43.37453 | 16.03305 | 36093 ft | 459 kts | 185° |
| 2026-04-29 10:36 | 43.31063 | 16.03425 | 36097 ft | 459 kts | 184° |
| 2026-04-29 10:36 | 43.24676 | 16.03546 | 36082 ft | 459 kts | 184° |
| 2026-04-29 10:37 | 43.18340 | 16.03666 | 36091 ft | 459 kts | 184° |
| 2026-04-29 10:37 | 43.11956 | 16.03779 | 36087 ft | 459 kts | 184° |
| 2026-04-29 10:38 | 43.05568 | 16.03888 | 36089 ft | 459 kts | 184° |
| 2026-04-29 10:38 | 42.99184 | 16.04002 | 36090 ft | 459 kts | 184° |
| 2026-04-29 10:39 | 42.92840 | 16.04119 | 36096 ft | 459 kts | 184° |
| 2026-04-29 10:39 | 42.86456 | 16.04243 | 36082 ft | 459 kts | 184° |
| 2026-04-29 10:40 | 42.80079 | 16.04362 | 36088 ft | 458 kts | 184° |
| 2026-04-29 10:40 | 42.73703 | 16.04485 | 36089 ft | 458 kts | 184° |
| 2026-04-29 10:41 | 42.67373 | 16.04600 | 36081 ft | 458 kts | 184° |
| 2026-04-29 10:41 | 42.61003 | 16.04707 | 36084 ft | 458 kts | 184° |
| 2026-04-29 10:42 | 42.54643 | 16.04814 | 36087 ft | 456 kts | 184° |
| 2026-04-29 10:42 | 42.48312 | 16.04888 | 35728 ft | 454 kts | 185° |
| 2026-04-29 10:42 | 42.45159 | 16.04807 | 35428 ft | 453 kts | 186° |
| 2026-04-29 10:43 | 42.42008 | 16.04657 | 35138 ft | 453 kts | 186° |
| 2026-04-29 10:43 | 42.38902 | 16.04479 | 35032 ft | 452 kts | 187° |
| 2026-04-29 10:43 | 42.35754 | 16.04296 | 35060 ft | 454 kts | 186° |
| 2026-04-29 10:44 | 42.29435 | 16.03982 | 35041 ft | 454 kts | 186° |
| 2026-04-29 10:44 | 42.23116 | 16.03734 | 35058 ft | 455 kts | 185° |
| 2026-04-29 10:45 | 42.16789 | 16.03492 | 35064 ft | 455 kts | 185° |
| 2026-04-29 10:45 | 42.10510 | 16.03239 | 35066 ft | 455 kts | 185° |
| 2026-04-29 10:46 | 42.04178 | 16.02991 | 35056 ft | 455 kts | 185° |
| 2026-04-29 10:46 | 41.97850 | 16.02735 | 35066 ft | 455 kts | 185° |
| 2026-04-29 10:47 | 41.91518 | 16.02481 | 35078 ft | 455 kts | 185° |
| 2026-04-29 10:47 | 41.85227 | 16.02225 | 35071 ft | 455 kts | 185° |
| 2026-04-29 10:48 | 41.78894 | 16.01968 | 35074 ft | 455 kts | 185° |
| 2026-04-29 10:48 | 41.72565 | 16.01714 | 35079 ft | 455 kts | 185° |
| 2026-04-29 10:49 | 41.66237 | 16.01462 | 35080 ft | 455 kts | 185° |
| 2026-04-29 10:49 | 41.59950 | 16.01216 | 35082 ft | 455 kts | 185° |
| 2026-04-29 10:50 | 41.53619 | 16.00954 | 35079 ft | 455 kts | 185° |
| 2026-04-29 10:50 | 41.47291 | 16.00706 | 35070 ft | 455 kts | 185° |
| 2026-04-29 10:51 | 41.40969 | 16.00454 | 35079 ft | 455 kts | 185° |
| 2026-04-29 10:51 | 41.34684 | 16.00201 | 35086 ft | 455 kts | 185° |
| 2026-04-29 10:52 | 41.28357 | 15.99951 | 35082 ft | 455 kts | 185° |
| 2026-04-29 10:52 | 41.22031 | 15.99702 | 35077 ft | 455 kts | 185° |
| 2026-04-29 10:53 | 41.15710 | 15.99452 | 35081 ft | 455 kts | 185° |
| 2026-04-29 10:53 | 41.09391 | 15.99202 | 35082 ft | 454 kts | 185° |
| 2026-04-29 10:54 | 41.03119 | 15.98961 | 35078 ft | 454 kts | 184° |
| 2026-04-29 10:54 | 40.96808 | 15.98714 | 35081 ft | 453 kts | 184° |
| 2026-04-29 10:55 | 40.90505 | 15.98473 | 35087 ft | 453 kts | 184° |
| 2026-04-29 10:55 | 40.84245 | 15.98220 | 35082 ft | 453 kts | 184° |
| 2026-04-29 10:56 | 40.77951 | 15.97976 | 35088 ft | 453 kts | 184° |
| 2026-04-29 10:56 | 40.71653 | 15.97738 | 35089 ft | 453 kts | 184° |
| 2026-04-29 10:57 | 40.65360 | 15.97492 | 35073 ft | 452 kts | 184° |
| 2026-04-29 10:57 | 40.60132 | 15.97286 | 35079 ft | 452 kts | 184° |
| 2026-04-29 10:58 | 40.52828 | 15.97008 | 35083 ft | 452 kts | 184° |
| 2026-04-29 10:58 | 40.47559 | 15.96800 | 35087 ft | 452 kts | 184° |
| 2026-04-29 10:59 | 40.41314 | 15.96556 | 35086 ft | 452 kts | 184° |
| 2026-04-29 10:59 | 40.35031 | 15.96314 | 35085 ft | 452 kts | 184° |
| 2026-04-29 10:59 | 40.31914 | 15.95939 | 35077 ft | 448 kts | 195° |
| 2026-04-29 11:00 | 40.27997 | 15.94324 | 35084 ft | 445 kts | 201° |
| 2026-04-29 11:00 | 40.23083 | 15.92111 | 35073 ft | 446 kts | 201° |
| 2026-04-29 11:01 | 40.17265 | 15.89464 | 35080 ft | 446 kts | 201° |
| 2026-04-29 11:01 | 40.11404 | 15.86803 | 35085 ft | 446 kts | 201° |
| 2026-04-29 11:02 | 40.05538 | 15.84163 | 35091 ft | 446 kts | 201° |
| 2026-04-29 11:02 | 39.99666 | 15.81531 | 35095 ft | 446 kts | 201° |
| 2026-04-29 11:03 | 39.93833 | 15.78920 | 35094 ft | 446 kts | 201° |
| 2026-04-29 11:03 | 39.87971 | 15.76291 | 35095 ft | 446 kts | 201° |
| 2026-04-29 11:04 | 39.82107 | 15.73669 | 35094 ft | 445 kts | 201° |
| 2026-04-29 11:04 | 39.76247 | 15.71061 | 35094 ft | 445 kts | 201° |
| 2026-04-29 11:05 | 39.70422 | 15.68473 | 35101 ft | 445 kts | 201° |
| 2026-04-29 11:05 | 39.64570 | 15.65854 | 35100 ft | 445 kts | 201° |
| 2026-04-29 11:06 | 39.58709 | 15.63242 | 35098 ft | 445 kts | 201° |
| 2026-04-29 11:06 | 39.52849 | 15.60643 | 35095 ft | 446 kts | 201° |
| 2026-04-29 11:07 | 39.46977 | 15.58050 | 35091 ft | 446 kts | 201° |
| 2026-04-29 11:07 | 39.41142 | 15.55490 | 35081 ft | 446 kts | 201° |
| 2026-04-29 11:08 | 39.35268 | 15.52914 | 35091 ft | 446 kts | 201° |
| 2026-04-29 11:08 | 39.29403 | 15.50321 | 35089 ft | 445 kts | 201° |
| 2026-04-29 11:09 | 39.23540 | 15.47728 | 35085 ft | 445 kts | 201° |
| 2026-04-29 11:09 | 39.17715 | 15.45177 | 35083 ft | 445 kts | 202° |
| 2026-04-29 11:10 | 39.11856 | 15.42623 | 35089 ft | 444 kts | 202° |
| 2026-04-29 11:10 | 39.06005 | 15.40072 | 35090 ft | 444 kts | 202° |
| 2026-04-29 11:11 | 39.00161 | 15.37520 | 35071 ft | 444 kts | 202° |
| 2026-04-29 11:11 | 38.94357 | 15.34993 | 35079 ft | 443 kts | 203° |
| 2026-04-29 11:11 | 38.91441 | 15.33724 | 34911 ft | 442 kts | 203° |
| 2026-04-29 11:12 | 38.88535 | 15.32460 | 34671 ft | 441 kts | 203° |
| 2026-04-29 11:12 | 38.85633 | 15.31201 | 34430 ft | 440 kts | 203° |
| 2026-04-29 11:12 | 38.82733 | 15.29944 | 34199 ft | 440 kts | 203° |
| 2026-04-29 11:12 | 38.79829 | 15.28688 | 33949 ft | 440 kts | 203° |
| 2026-04-29 11:13 | 38.76926 | 15.27434 | 33654 ft | 440 kts | 204° |
| 2026-04-29 11:13 | 38.74020 | 15.26179 | 33381 ft | 440 kts | 204° |
| 2026-04-29 11:13 | 38.71122 | 15.24926 | 33113 ft | 440 kts | 204° |
| 2026-04-29 11:13 | 38.68257 | 15.23689 | 32850 ft | 441 kts | 204° |
| 2026-04-29 11:14 | 38.65349 | 15.22436 | 32585 ft | 441 kts | 203° |
| 2026-04-29 11:14 | 38.62440 | 15.21186 | 32249 ft | 441 kts | 203° |
| 2026-04-29 11:14 | 38.59515 | 15.19926 | 31353 ft | 446 kts | 203° |
| 2026-04-29 11:14 | 38.56564 | 15.18650 | 30464 ft | 450 kts | 203° |
| 2026-04-29 11:15 | 38.53580 | 15.17360 | 29434 ft | 455 kts | 202° |
| 2026-04-29 11:15 | 38.50577 | 15.16069 | 28485 ft | 457 kts | 202° |
| 2026-04-29 11:15 | 38.47557 | 15.14775 | 27530 ft | 458 kts | 202° |
| 2026-04-29 11:15 | 38.44585 | 15.13507 | 26928 ft | 454 kts | 202° |
| 2026-04-29 11:16 | 38.41608 | 15.12236 | 26258 ft | 450 kts | 202° |
| 2026-04-29 11:16 | 38.38653 | 15.10972 | 25611 ft | 446 kts | 201° |
| 2026-04-29 11:16 | 38.35726 | 15.09721 | 24944 ft | 442 kts | 202° |
| 2026-04-29 11:16 | 38.32823 | 15.08481 | 24295 ft | 438 kts | 201° |
| 2026-04-29 11:17 | 38.29950 | 15.07251 | 23655 ft | 435 kts | 201° |
| 2026-04-29 11:17 | 38.27094 | 15.06030 | 22949 ft | 430 kts | 201° |
| 2026-04-29 11:17 | 38.24275 | 15.04830 | 22328 ft | 424 kts | 201° |
| 2026-04-29 11:17 | 38.21492 | 15.03650 | 21708 ft | 419 kts | 201° |
| 2026-04-29 11:18 | 38.18775 | 15.02498 | 21108 ft | 414 kts | 201° |
| 2026-04-29 11:18 | 38.16061 | 15.01344 | 20517 ft | 410 kts | 201° |
| 2026-04-29 11:18 | 38.13365 | 15.00199 | 19935 ft | 407 kts | 201° |
| 2026-04-29 11:18 | 38.10692 | 14.99063 | 19385 ft | 404 kts | 201° |
| 2026-04-29 11:19 | 38.08033 | 14.97933 | 18832 ft | 402 kts | 201° |
| 2026-04-29 11:19 | 38.05385 | 14.96809 | 18309 ft | 401 kts | 201° |
| 2026-04-29 11:19 | 38.02748 | 14.95696 | 17744 ft | 398 kts | 201° |
| 2026-04-29 11:19 | 38.00138 | 14.94594 | 17225 ft | 393 kts | 201° |
| 2026-04-29 11:20 | 37.97595 | 14.93520 | 16720 ft | 388 kts | 201° |
| 2026-04-29 11:20 | 37.95045 | 14.92442 | 16209 ft | 385 kts | 201° |
| 2026-04-29 11:20 | 37.92518 | 14.91372 | 15670 ft | 381 kts | 201° |
| 2026-04-29 11:20 | 37.90020 | 14.90315 | 15158 ft | 377 kts | 201° |
| 2026-04-29 11:21 | 37.87537 | 14.89267 | 14612 ft | 374 kts | 201° |
| 2026-04-29 11:21 | 37.85076 | 14.88232 | 14072 ft | 371 kts | 201° |
| 2026-04-29 11:21 | 37.82631 | 14.87206 | 13477 ft | 369 kts | 201° |
| 2026-04-29 11:21 | 37.80213 | 14.86186 | 12941 ft | 365 kts | 201° |
| 2026-04-29 11:22 | 37.77897 | 14.85212 | 12651 ft | 346 kts | 200° |
| 2026-04-29 11:22 | 37.75613 | 14.84253 | 11670 ft | 347 kts | 200° |
| 2026-04-29 11:22 | 37.73356 | 14.83304 | 11301 ft | 341 kts | 200° |
| 2026-04-29 11:22 | 37.71121 | 14.82365 | 10832 ft | 334 kts | 200° |
| 2026-04-29 11:23 | 37.68989 | 14.81474 | 10642 ft | 313 kts | 200° |
| 2026-04-29 11:23 | 37.66976 | 14.80634 | 10404 ft | 297 kts | 200° |
| 2026-04-29 11:23 | 37.65042 | 14.79825 | 10173 ft | 292 kts | 200° |
| 2026-04-29 11:23 | 37.63150 | 14.79033 | 9899 ft | 288 kts | 200° |
| 2026-04-29 11:24 | 37.61256 | 14.78239 | 9524 ft | 286 kts | 200° |
| 2026-04-29 11:24 | 37.59369 | 14.77447 | 9158 ft | 285 kts | 200° |
| 2026-04-29 11:24 | 37.57495 | 14.76660 | 8824 ft | 283 kts | 200° |
| 2026-04-29 11:24 | 37.55752 | 14.75581 | 8460 ft | 278 kts | 218° |
| 2026-04-29 11:25 | 37.54475 | 14.73833 | 8291 ft | 264 kts | 239° |
| 2026-04-29 11:25 | 37.53797 | 14.71785 | 8160 ft | 246 kts | 258° |
| 2026-04-29 11:25 | 37.53579 | 14.69703 | 7902 ft | 236 kts | 264° |
| 2026-04-29 11:25 | 37.53402 | 14.67658 | 7572 ft | 234 kts | 263° |
| 2026-04-29 11:26 | 37.53050 | 14.63635 | 6951 ft | 233 kts | 263° |
| 2026-04-29 11:26 | 37.52871 | 14.61610 | 6640 ft | 232 kts | 263° |
| 2026-04-29 11:26 | 37.52691 | 14.59590 | 6309 ft | 232 kts | 263° |
| 2026-04-29 11:27 | 37.52496 | 14.57573 | 5975 ft | 231 kts | 257° |
| 2026-04-29 11:27 | 37.51858 | 14.55749 | 5655 ft | 227 kts | 230° |
| 2026-04-29 11:27 | 37.50657 | 14.54512 | 5339 ft | 224 kts | 203° |
| 2026-04-29 11:27 | 37.49177 | 14.54112 | 5041 ft | 220 kts | 176° |
| 2026-04-29 11:28 | 37.47715 | 14.54597 | 4992 ft | 221 kts | 151° |
| 2026-04-29 11:28 | 37.46550 | 14.55861 | 4999 ft | 225 kts | 124° |
| 2026-04-29 11:28 | 37.45874 | 14.57646 | 4998 ft | 227 kts | 113° |
| 2026-04-29 11:28 | 37.45289 | 14.59492 | 4995 ft | 227 kts | 113° |
| 2026-04-29 11:29 | 37.44706 | 14.61330 | 5002 ft | 226 kts | 114° |
| 2026-04-29 11:29 | 37.44120 | 14.63168 | 5003 ft | 227 kts | 113° |
| 2026-04-29 11:29 | 37.43551 | 14.65017 | 5000 ft | 227 kts | 107° |
| 2026-04-29 11:29 | 37.43308 | 14.66982 | 5007 ft | 229 kts | 91° |
| 2026-04-29 11:30 | 37.43421 | 14.68978 | 5027 ft | 229 kts | 87° |
| 2026-04-29 11:30 | 37.43604 | 14.70940 | 5007 ft | 229 kts | 85° |
| 2026-04-29 11:30 | 37.43781 | 14.72897 | 4954 ft | 221 kts | 85° |
| 2026-04-29 11:30 | 37.43948 | 14.74805 | 4731 ft | 218 kts | 85° |
| 2026-04-29 11:31 | 37.44112 | 14.76688 | 4456 ft | 216 kts | 86° |
| 2026-04-29 11:31 | 37.44274 | 14.78559 | 4184 ft | 215 kts | 85° |
| 2026-04-29 11:31 | 37.44436 | 14.80419 | 3902 ft | 213 kts | 85° |
| 2026-04-29 11:31 | 37.44596 | 14.82275 | 3621 ft | 213 kts | 85° |
| 2026-04-29 11:32 | 37.44756 | 14.84121 | 3349 ft | 212 kts | 86° |
| 2026-04-29 11:32 | 37.44912 | 14.85936 | 3068 ft | 210 kts | 85° |
| 2026-04-29 11:32 | 37.45069 | 14.87754 | 2802 ft | 209 kts | 85° |
| 2026-04-29 11:32 | 37.45225 | 14.89572 | 2514 ft | 208 kts | 84° |
| 2026-04-29 11:33 | 37.45377 | 14.91340 | 2263 ft | 196 kts | 84° |
| 2026-04-29 11:33 | 37.45517 | 14.92970 | 2015 ft | 182 kts | 86° |
| 2026-04-29 11:33 | 37.45651 | 14.94535 | 1757 ft | 175 kts | 86° |
| 2026-04-29 11:33 | 37.45777 | 14.96001 | 1538 ft | 160 kts | 86° |
| 2026-04-29 11:34 | 37.45891 | 14.97338 | 1333 ft | 147 kts | 87° |
| 2026-04-29 11:34 | 37.45997 | 14.98586 | 1153 ft | 144 kts | 86° |
| 2026-04-29 11:34 | 37.46103 | 14.99828 | 953 ft | 142 kts | 87° |
| 2026-04-29 11:34 | 37.46207 | 15.01064 | 788 ft | 141 kts | 85° |
| 2026-04-29 11:35 | 37.46310 | 15.02297 | 574 ft | 142 kts | 85° |
| 2026-04-29 11:35 | 37.46415 | 15.03521 | 382 ft | 139 kts | 83° |
| 2026-04-29 11:35 | 37.46518 | 15.04737 | 204 ft | 140 kts | 84° |
| 2026-04-29 11:35 | 37.46623 | 15.05945 | 61 ft | 133 kts | 83° |
| 2026-04-29 11:36 | 37.46698 | 15.06885 | 52 ft | 75 kts | 84° |
| 2026-04-29 11:36 | 37.46737 | 15.07349 | 52 ft | 36 kts | 84° |
| 2026-04-29 11:36 | 37.46786 | 15.07632 | 51 ft | 28 kts | 67° |
| 2026-04-29 11:36 | 37.46872 | 15.07791 | 52 ft | 16 kts | 40° |
| 2026-04-29 11:37 | 37.46936 | 15.07728 | 52 ft | 16 kts | 264° |
| 2026-04-29 11:37 | 37.46923 | 15.07580 | 52 ft | 18 kts | 264° |
| 2026-04-29 11:37 | 37.46909 | 15.07420 | 52 ft | 19 kts | 264° |
| 2026-04-29 11:37 | 37.46895 | 15.07255 | 52 ft | 19 kts | 264° |
| 2026-04-29 11:38 | 37.46881 | 15.07080 | 51 ft | 21 kts | 264° |
| 2026-04-29 11:38 | 37.46866 | 15.06892 | 51 ft | 22 kts | 264° |
| 2026-04-29 11:38 | 37.46857 | 15.06790 | 51 ft | 0 kts | 263° |
| 2026-04-29 11:38 | 37.46856 | 15.06772 | 51 ft | 4 kts | 263° |
| 2026-04-29 11:39 | 37.46850 | 15.06713 | 50 ft | 10 kts | 263° |
| 2026-04-29 11:39 | 37.46840 | 15.06599 | 51 ft | 16 kts | 264° |
| 2026-04-29 11:39 | 37.46827 | 15.06434 | 51 ft | 21 kts | 264° |
| 2026-04-29 11:39 | 37.46815 | 15.06291 | 51 ft | 15 kts | 264° |
| 2026-04-29 11:40 | 37.46836 | 15.06225 | 50 ft | 7 kts | 352° |
| 2026-04-29 11:40 | 37.46876 | 15.06220 | 51 ft | 5 kts | 354° |
| 2026-04-29 11:40 | 37.46902 | 15.06217 | 51 ft | 0 kts | 354° |